Biggs Army Air Field (Fort Bliss) Fort Bliss,El Paso US
ICAO: KBIF
IATA: BIF
Category: Medium
Scheduled Services: No

Elevation: 3946 ft
TransAlt. 18000 ft.

Airport Communications:
EL PASO APP:119.15
EL PASO CLNC DEL:125
EL PASO DEP:121.3
GND:121.6
ANG OPS:49.95
PTD:122.7
TWR:127.9

KBIF Zoom In..

Runways:

(A) RW 03 length 13554 ft width 150 ft
---- / hdg 32

(B) RW 21 length 13554 ft width 150 ft
---- / hdg 212

Location; KBIF
Day. 21 / Time. 14.58 Zulu
* Altimeter: 30.02
* Temperature: 23° c. 73.4°f.
* Wind from: 110° Speed 12 kn.
Dewpoint: 13° c.
Visibility: 10 Statute Miles.
Clouds: Clear (automated report).

KBIF 211458Z AUTO 11012KT 10SM CLR 23/13 A3002 RMK AO2 SLP102 T02280126 50010 $


Wind From 110°
Speed 12 kn.

 
 
jpsmedia.com for Web Design SOUNDCLOUD worldairports.se 2018   terms of use